createdAt,value
2023-02-09T00:00:21.606Z,12.90
2023-02-09T00:02:48.451Z,11.93
2023-02-09T00:05:15.156Z,12.77
2023-02-09T00:07:41.922Z,14.33
2023-02-09T00:10:09.158Z,13.80
2023-02-09T00:12:56.027Z,12.17
2023-02-09T00:15:22.784Z,12.90
2023-02-09T00:17:49.539Z,12.00
2023-02-09T00:20:16.251Z,13.87
2023-02-09T00:22:42.963Z,12.80
2023-02-09T00:25:09.722Z,11.73
2023-02-09T00:27:36.537Z,13.10
2023-02-09T00:30:03.804Z,13.40
2023-02-09T00:32:33.097Z,13.57
2023-02-09T00:34:59.933Z,15.73
2023-02-09T00:37:26.674Z,14.17
2023-02-09T00:39:53.399Z,13.60
2023-02-09T00:42:20.140Z,13.73
2023-02-09T00:44:46.896Z,13.07
2023-02-09T00:47:13.730Z,13.80
2023-02-09T00:49:40.466Z,12.80
2023-02-09T00:52:09.766Z,12.93
2023-02-09T00:54:36.902Z,11.90
2023-02-09T00:57:05.415Z,10.70
2023-02-09T00:59:34.307Z,10.63
2023-02-09T01:02:01.807Z,11.67
2023-02-09T01:04:28.681Z,11.47
2023-02-09T01:06:55.488Z,11.97
2023-02-09T01:09:22.233Z,10.13
2023-02-09T01:11:49.062Z,10.30
2023-02-09T01:14:15.839Z,10.27
2023-02-09T01:16:42.898Z,10.43
2023-02-09T01:19:12.532Z,10.53
2023-02-09T01:21:39.856Z,10.23
2023-02-09T01:24:07.196Z,10.97
2023-02-09T01:26:34.092Z,11.47
2023-02-09T01:29:00.888Z,10.03
2023-02-09T01:31:33.338Z,11.00
2023-02-09T01:34:01.829Z,10.60
2023-02-09T01:36:30.292Z,11.43
2023-02-09T01:38:59.684Z,11.30
2023-02-09T01:41:27.949Z,10.83
2023-02-09T01:44:05.620Z,10.33
2023-02-09T01:46:36.594Z,10.20
2023-02-09T01:49:18.217Z,10.73
2023-02-09T01:52:01.951Z,11.10
2023-02-09T01:54:45.988Z,11.20
2023-02-09T01:57:25.240Z,10.63
2023-02-09T01:59:57.430Z,11.23
2023-02-09T02:02:25.171Z,11.32
2023-02-09T02:04:52.656Z,10.90
2023-02-09T02:07:29.505Z,10.30
2023-02-09T02:09:56.471Z,11.37
2023-02-09T02:12:23.938Z,11.53
2023-02-09T02:14:50.767Z,9.90
2023-02-09T02:17:52.809Z,12.30
2023-02-09T02:20:40.529Z,11.13
2023-02-09T02:23:24.593Z,10.93
2023-02-09T02:26:18.192Z,10.90
2023-02-09T02:29:13.831Z,10.23
2023-02-09T02:32:10.785Z,10.33
2023-02-09T02:34:46.083Z,9.57
2023-02-09T02:37:22.122Z,9.70
2023-02-09T02:40:05.229Z,9.30
2023-02-09T02:45:43.213Z,9.80
2023-02-09T02:48:42.551Z,9.03
2023-02-09T02:51:19.433Z,8.97
2023-02-09T02:53:50.962Z,9.57
2023-02-09T02:56:26.908Z,10.40
2023-02-09T02:58:57.675Z,11.07
2023-02-09T03:01:28.908Z,9.43
2023-02-09T03:03:56.852Z,10.67
2023-02-09T03:06:23.571Z,9.37
2023-02-09T03:08:53.701Z,9.67
2023-02-09T03:11:22.536Z,9.40
2023-02-09T03:14:13.925Z,10.73
2023-02-09T03:16:53.881Z,10.73
2023-02-09T03:19:51.247Z,9.37
2023-02-09T03:22:30.172Z,9.70
2023-02-09T03:25:14.150Z,9.20
2023-02-09T03:27:50.092Z,9.63
2023-02-09T03:30:18.678Z,9.60
2023-02-09T03:32:46.962Z,9.63
2023-02-09T03:35:19.289Z,9.87
2023-02-09T03:37:46.059Z,9.82
2023-02-09T03:40:12.988Z,9.93
2023-02-09T03:42:39.754Z,9.87
2023-02-09T03:45:08.026Z,10.00
2023-02-09T03:47:34.844Z,8.90
2023-02-09T03:50:01.683Z,8.83
2023-02-09T03:52:30.918Z,9.43
2023-02-09T03:54:57.663Z,9.10
2023-02-09T03:57:24.584Z,8.30
2023-02-09T03:59:51.337Z,10.33
2023-02-09T04:02:18.111Z,9.70
2023-02-09T04:04:45.186Z,10.03
2023-02-09T04:07:12.439Z,9.60
2023-02-09T04:09:39.299Z,10.13
2023-02-09T04:12:06.308Z,9.70
2023-02-09T04:14:33.300Z,9.70
2023-02-09T04:17:00.015Z,9.47
2023-02-09T04:19:26.782Z,8.97
2023-02-09T04:21:53.578Z,9.57
2023-02-09T04:24:21.738Z,10.37
2023-02-09T04:26:48.579Z,10.17
2023-02-09T04:29:15.313Z,9.87
2023-02-09T04:31:42.044Z,10.07
2023-02-09T04:34:08.991Z,11.20
2023-02-09T04:36:35.739Z,10.23
2023-02-09T04:39:02.457Z,8.80
2023-02-09T04:41:29.317Z,10.73
2023-02-09T04:43:56.045Z,9.17
2023-02-09T04:46:22.768Z,9.23
2023-02-09T04:48:49.470Z,8.67
2023-02-09T04:51:16.547Z,8.20
2023-02-09T04:53:43.352Z,9.67
2023-02-09T04:56:15.187Z,10.53
2023-02-09T04:59:20.777Z,11.38
2023-02-09T05:01:47.526Z,10.50
2023-02-09T05:04:14.327Z,9.77
2023-02-09T05:06:41.028Z,10.43
2023-02-09T05:09:07.788Z,9.90
2023-02-09T05:11:34.506Z,10.83
2023-02-09T05:14:01.205Z,10.90
2023-02-09T05:16:28.042Z,11.00
2023-02-09T05:18:55.396Z,10.33
2023-02-09T05:21:22.186Z,8.97
2023-02-09T05:23:48.969Z,10.13
2023-02-09T05:26:15.692Z,10.83
2023-02-09T05:28:42.405Z,11.33
2023-02-09T05:31:09.297Z,10.50
2023-02-09T05:33:36.105Z,9.60
2023-02-09T05:36:09.514Z,10.80
2023-02-09T05:38:36.494Z,9.67
2023-02-09T05:41:08.208Z,11.13
2023-02-09T05:43:35.133Z,13.47
2023-02-09T05:46:02.080Z,12.10
2023-02-09T05:48:29.474Z,10.23
2023-02-09T05:50:56.215Z,10.40
2023-02-09T05:53:22.932Z,9.10
2023-02-09T05:55:49.654Z,10.07
2023-02-09T05:58:16.443Z,10.00
2023-02-09T06:00:43.515Z,8.27
2023-02-09T06:03:10.582Z,9.47
2023-02-09T06:05:37.360Z,12.03
2023-02-09T06:08:04.389Z,11.40
2023-02-09T06:10:31.085Z,14.90
2023-02-09T06:12:57.858Z,13.07
2023-02-09T06:15:24.622Z,11.87
2023-02-09T06:17:51.333Z,11.67
2023-02-09T06:20:18.200Z,11.27
2023-02-09T06:22:44.900Z,11.23
2023-02-09T06:25:11.601Z,9.07
2023-02-09T06:27:38.412Z,10.87
2023-02-09T06:30:06.460Z,14.20
2023-02-09T06:32:33.338Z,10.63
2023-02-09T06:35:00.094Z,12.43
2023-02-09T06:37:26.846Z,9.63
2023-02-09T06:39:53.536Z,9.33
2023-02-09T06:42:20.291Z,9.70
2023-02-09T06:44:47.006Z,9.27
2023-02-09T06:47:13.704Z,9.33
2023-02-09T06:49:40.489Z,10.00
2023-02-09T06:52:07.293Z,9.03
2023-02-09T06:54:33.992Z,9.23
2023-02-09T06:57:00.704Z,10.23
2023-02-09T06:59:27.407Z,9.83
2023-02-09T07:01:55.104Z,9.13
2023-02-09T07:04:22.295Z,9.60
2023-02-09T07:06:49.028Z,9.40
2023-02-09T07:09:15.743Z,10.87
2023-02-09T07:11:42.639Z,10.70
2023-02-09T07:14:09.349Z,10.40
2023-02-09T07:16:36.172Z,12.57
2023-02-09T07:19:02.956Z,14.70
2023-02-09T07:21:29.734Z,12.97
2023-02-09T07:23:56.476Z,12.00
2023-02-09T07:26:23.223Z,12.67
2023-02-09T07:28:49.939Z,11.33
2023-02-09T07:31:17.088Z,11.43
2023-02-09T07:33:44.753Z,12.23
2023-02-09T07:36:14.211Z,12.10
2023-02-09T07:38:41.348Z,12.47
2023-02-09T07:41:14.481Z,14.17
2023-02-09T07:43:41.301Z,13.90
2023-02-09T07:46:08.581Z,15.10
2023-02-09T07:48:39.019Z,14.93
2023-02-09T07:51:06.264Z,15.83
2023-02-09T07:53:33.585Z,14.70
2023-02-09T07:56:00.383Z,14.77
2023-02-09T07:58:27.237Z,15.53
2023-02-09T08:00:53.984Z,13.43
2023-02-09T08:03:23.773Z,13.23
2023-02-09T08:06:10.666Z,15.00
2023-02-09T08:08:37.384Z,14.30
2023-02-09T08:11:05.457Z,12.83
2023-02-09T08:13:38.072Z,13.47
2023-02-09T08:16:08.224Z,14.27
2023-02-09T08:18:39.889Z,13.70
2023-02-09T08:21:10.819Z,13.40
2023-02-09T08:23:40.396Z,13.50
2023-02-09T08:26:10.421Z,15.70
2023-02-09T08:28:44.256Z,14.70
2023-02-09T08:31:18.136Z,15.63
2023-02-09T08:33:46.861Z,14.27
2023-02-09T08:36:14.727Z,14.87
2023-02-09T08:38:44.648Z,14.40
2023-02-09T08:41:14.154Z,16.00
2023-02-09T08:43:41.205Z,15.90
2023-02-09T08:46:11.529Z,14.47
2023-02-09T08:48:41.280Z,14.70
2023-02-09T08:51:09.714Z,14.07
2023-02-09T08:53:36.813Z,13.97
2023-02-09T08:56:03.733Z,13.47
2023-02-09T08:58:32.006Z,12.53
2023-02-09T09:01:00.028Z,13.17
2023-02-09T09:03:30.041Z,12.57
2023-02-09T09:06:02.098Z,12.73
2023-02-09T09:08:30.380Z,13.17
2023-02-09T09:10:57.330Z,11.93
2023-02-09T09:13:24.689Z,12.20
2023-02-09T09:15:52.501Z,11.50
2023-02-09T09:18:19.319Z,11.30
2023-02-09T09:20:46.143Z,11.27
2023-02-09T09:23:13.458Z,11.37
2023-02-09T09:25:40.857Z,11.57
2023-02-09T09:28:08.654Z,12.03
2023-02-09T09:30:36.586Z,12.73
2023-02-09T09:33:03.998Z,12.33
2023-02-09T09:35:31.664Z,11.77
2023-02-09T09:37:58.576Z,11.93
2023-02-09T09:40:29.806Z,11.77
2023-02-09T09:43:04.392Z,11.40
2023-02-09T09:45:35.297Z,12.07
2023-02-09T09:48:02.288Z,10.37
2023-02-09T09:50:38.615Z,10.30
2023-02-09T09:53:15.426Z,11.27
2023-02-09T09:55:44.288Z,12.38
2023-02-09T09:58:21.156Z,11.32
2023-02-09T10:00:50.072Z,11.70
2023-02-09T10:03:19.980Z,10.40
2023-02-09T10:05:52.600Z,11.40
2023-02-09T10:08:32.181Z,10.45
2023-02-09T10:11:17.362Z,11.07
2023-02-09T10:13:54.669Z,10.07
2023-02-09T10:16:32.945Z,10.27
2023-02-09T10:19:06.007Z,10.13
2023-02-09T10:21:36.745Z,9.52
2023-02-09T10:24:11.706Z,9.18
2023-02-09T10:26:40.755Z,8.65
2023-02-09T10:29:24.373Z,9.27
2023-02-09T10:32:16.558Z,8.50
2023-02-09T10:34:45.581Z,7.93
2023-02-09T10:37:37.387Z,7.38
2023-02-09T10:40:07.162Z,7.07
2023-02-09T10:42:37.011Z,5.75
2023-02-09T10:45:14.712Z,4.55
2023-02-09T10:47:41.861Z,4.15
2023-02-09T10:50:11.466Z,4.57
2023-02-09T10:52:43.479Z,4.18
2023-02-09T10:55:21.948Z,5.07
2023-02-09T10:57:48.729Z,5.15
2023-02-09T11:00:15.467Z,4.57
2023-02-09T11:03:01.482Z,5.05
2023-02-09T11:05:35.176Z,4.85
2023-02-09T11:08:22.416Z,4.68
2023-02-09T11:11:03.144Z,4.40
2023-02-09T11:13:32.511Z,5.57
2023-02-09T11:16:28.349Z,5.45
2023-02-09T11:19:05.918Z,5.32
2023-02-09T11:21:49.322Z,6.25
2023-02-09T11:24:54.098Z,6.30
2023-02-09T11:27:38.940Z,5.55
2023-02-09T11:30:18.425Z,5.03
2023-02-09T11:33:01.552Z,5.78
2023-02-09T11:35:54.018Z,5.65
2023-02-09T11:38:37.349Z,6.72
2023-02-09T11:41:28.034Z,7.18
2023-02-09T11:43:57.529Z,7.30
2023-02-09T11:46:25.253Z,7.88
2023-02-09T11:48:59.958Z,8.30
2023-02-09T11:51:27.031Z,8.07
2023-02-09T11:54:05.730Z,8.13
2023-02-09T11:56:38.356Z,8.30
2023-02-09T12:02:02.002Z,9.38
2023-02-09T12:04:36.729Z,9.55
2023-02-09T12:07:32.999Z,10.00
2023-02-09T12:10:31.020Z,9.02
2023-02-09T12:13:20.619Z,9.18
2023-02-09T12:15:52.404Z,9.90
2023-02-09T12:18:25.892Z,9.90
2023-02-09T12:20:54.277Z,9.18
2023-02-09T12:23:29.745Z,9.20
2023-02-09T12:26:33.895Z,9.93
2023-02-09T12:29:36.925Z,10.05
2023-02-09T12:32:03.708Z,9.70
2023-02-09T12:34:39.462Z,9.38
2023-02-09T12:37:16.569Z,9.43
2023-02-09T12:40:06.063Z,9.55
2023-02-09T12:42:44.963Z,10.48
2023-02-09T12:45:40.232Z,9.77
2023-02-09T12:48:09.908Z,10.75
2023-02-09T12:50:42.848Z,9.80
2023-02-09T12:53:21.893Z,9.48
2023-02-09T12:56:03.649Z,9.85
2023-02-09T12:58:45.760Z,9.75
2023-02-09T13:01:14.275Z,10.55
2023-02-09T13:03:55.057Z,11.00
2023-02-09T13:06:43.625Z,9.80
2023-02-09T13:09:19.271Z,10.20
2023-02-09T13:12:01.849Z,10.20
2023-02-09T13:14:30.532Z,10.13
2023-02-09T13:17:26.095Z,9.60
2023-02-09T13:20:22.237Z,10.32
2023-02-09T13:23:30.952Z,9.63
2023-02-09T13:26:21.698Z,10.75
2023-02-09T13:28:49.109Z,11.07
2023-02-09T13:31:30.110Z,10.85
2023-02-09T13:34:03.500Z,10.35
2023-02-09T13:36:42.659Z,10.43
2023-02-09T13:39:23.329Z,10.43
2023-02-09T13:41:53.543Z,10.95
2023-02-09T13:44:26.483Z,10.23
2023-02-09T13:46:59.464Z,10.65
2023-02-09T13:49:28.546Z,10.25
2023-02-09T13:52:16.191Z,10.13
2023-02-09T13:54:43.402Z,11.60
2023-02-09T13:57:17.988Z,10.95
2023-02-09T13:59:44.969Z,10.40
2023-02-09T14:02:19.494Z,9.95
2023-02-09T14:04:50.732Z,10.90
2023-02-09T14:07:19.011Z,10.82
2023-02-09T14:10:06.702Z,10.10
2023-02-09T14:13:05.062Z,11.18
2023-02-09T14:16:01.430Z,10.63
2023-02-09T14:18:54.082Z,11.15
2023-02-09T14:21:34.089Z,11.05
2023-02-09T14:24:13.382Z,11.10
2023-02-09T14:26:48.706Z,11.57
2023-02-09T14:29:26.073Z,10.50
2023-02-09T14:32:01.629Z,11.25
2023-02-09T14:34:35.835Z,11.05
2023-02-09T14:37:11.613Z,11.55
2023-02-09T14:40:06.091Z,11.75
2023-02-09T14:42:34.966Z,10.95
2023-02-09T14:45:14.936Z,11.10
2023-02-09T14:47:43.944Z,11.52
2023-02-09T14:50:13.327Z,11.55
2023-02-09T14:52:46.835Z,11.85
2023-02-09T14:55:23.838Z,10.90
2023-02-09T14:57:50.831Z,11.50
2023-02-09T15:00:17.903Z,12.02
2023-02-09T15:02:45.755Z,12.70
2023-02-09T15:05:12.699Z,11.75
2023-02-09T15:07:42.369Z,12.32
2023-02-09T15:10:20.798Z,12.50
2023-02-09T15:12:47.587Z,12.63
2023-02-09T15:15:19.887Z,11.50
2023-02-09T15:17:46.725Z,12.95
2023-02-09T15:20:15.487Z,12.25
2023-02-09T15:22:42.472Z,13.15
2023-02-09T15:25:10.017Z,13.35
2023-02-09T15:27:51.423Z,13.52
2023-02-09T15:30:22.451Z,14.32
2023-02-09T15:32:49.856Z,12.73
2023-02-09T15:35:19.670Z,13.35
2023-02-09T15:37:52.242Z,13.48
2023-02-09T15:40:45.433Z,12.67
2023-02-09T15:43:36.968Z,13.40
2023-02-09T15:46:07.140Z,12.02
2023-02-09T15:48:34.078Z,12.77
2023-02-09T15:51:00.865Z,13.55
2023-02-09T15:53:27.815Z,12.77
2023-02-09T15:55:57.941Z,12.50
2023-02-09T15:58:35.903Z,13.32
2023-02-09T16:01:03.602Z,14.60
2023-02-09T16:03:31.792Z,14.00
2023-02-09T16:06:24.674Z,14.02
2023-02-09T16:08:53.729Z,13.57
2023-02-09T16:11:29.311Z,13.73
2023-02-09T16:13:56.047Z,13.93
2023-02-09T16:16:25.320Z,13.23
2023-02-09T16:18:52.133Z,14.10
2023-02-09T16:21:24.933Z,15.18
2023-02-09T16:23:54.597Z,13.32
2023-02-09T16:26:23.039Z,14.23
2023-02-09T16:28:51.711Z,16.00
2023-02-09T16:31:19.244Z,17.40
2023-02-09T16:33:46.470Z,15.90
2023-02-09T16:36:16.711Z,12.82
2023-02-09T16:38:43.857Z,12.40
2023-02-09T16:41:32.315Z,13.02
2023-02-09T16:44:00.381Z,14.52
2023-02-09T16:46:30.535Z,16.70
2023-02-09T16:49:00.678Z,14.07
2023-02-09T16:51:31.034Z,13.40
2023-02-09T16:53:58.072Z,14.80
2023-02-09T16:56:25.884Z,12.13
2023-02-09T16:58:52.771Z,13.80
2023-02-09T17:01:23.234Z,13.50
2023-02-09T17:03:55.377Z,13.63
2023-02-09T17:06:28.453Z,13.82
2023-02-09T17:08:56.608Z,12.65
2023-02-09T17:11:25.565Z,14.15
2023-02-09T17:13:52.429Z,14.60
2023-02-09T17:16:21.944Z,13.35
2023-02-09T17:18:52.767Z,13.85
2023-02-09T17:21:25.331Z,13.88
2023-02-09T17:23:52.915Z,13.45
2023-02-09T17:26:20.651Z,14.35
2023-02-09T17:28:47.869Z,12.52
2023-02-09T17:31:26.974Z,13.05
2023-02-09T17:33:57.304Z,13.02
2023-02-09T17:36:27.642Z,13.90
2023-02-09T17:38:56.580Z,15.00
2023-02-09T17:41:33.978Z,14.07
2023-02-09T17:44:24.233Z,13.43
2023-02-09T17:46:56.025Z,13.95
2023-02-09T17:49:22.774Z,13.85
2023-02-09T17:51:49.542Z,14.05
2023-02-09T17:54:19.259Z,15.52
2023-02-09T17:56:46.793Z,14.25
2023-02-09T17:59:14.724Z,15.00
2023-02-09T18:01:51.578Z,14.75
2023-02-09T18:04:21.678Z,14.63
2023-02-09T18:06:48.883Z,15.55
2023-02-09T18:09:15.625Z,17.13
2023-02-09T18:11:45.330Z,19.15
2023-02-09T18:14:13.856Z,17.50
2023-02-09T18:16:42.526Z,18.15
2023-02-09T18:19:10.567Z,17.80
2023-02-09T18:21:39.826Z,26.83
2023-02-09T18:24:07.638Z,19.90
2023-02-09T18:26:34.367Z,16.20
2023-02-09T18:29:01.086Z,18.33
2023-02-09T18:31:27.869Z,18.60
2023-02-09T18:33:54.694Z,19.07
2023-02-09T18:36:21.418Z,15.95
2023-02-09T18:38:49.128Z,18.48
2023-02-09T18:41:15.861Z,18.20
2023-02-09T18:43:42.547Z,18.65
2023-02-09T18:46:13.603Z,18.45
2023-02-09T18:48:40.459Z,18.97
2023-02-09T18:51:08.372Z,17.65
2023-02-09T18:53:35.347Z,17.57
2023-02-09T18:56:02.107Z,18.33
2023-02-09T18:58:29.114Z,18.40
2023-02-09T19:00:56.068Z,23.13
2023-02-09T19:03:23.177Z,20.70
2023-02-09T19:05:50.028Z,17.97
2023-02-09T19:08:16.724Z,17.67
2023-02-09T19:10:44.132Z,21.07
2023-02-09T19:13:11.194Z,19.33
2023-02-09T19:15:39.036Z,20.27
2023-02-09T19:18:06.175Z,20.67
2023-02-09T19:20:34.231Z,13.63
2023-02-09T19:23:02.404Z,14.27
2023-02-09T19:25:30.366Z,13.40
2023-02-09T19:27:57.475Z,14.07
2023-02-09T19:30:26.347Z,15.50
2023-02-09T19:32:54.836Z,15.37
2023-02-09T19:35:22.824Z,19.40
2023-02-09T19:37:56.137Z,18.83
2023-02-09T19:40:35.916Z,19.17
2023-02-09T19:43:04.220Z,18.73
2023-02-09T19:45:36.338Z,18.90
2023-02-09T19:48:07.589Z,22.43
2023-02-09T19:50:36.787Z,28.03
2023-02-09T19:53:05.797Z,24.97
2023-02-09T19:55:33.499Z,22.23
2023-02-09T19:58:00.243Z,18.83
2023-02-09T20:00:27.047Z,18.03
2023-02-09T20:02:53.836Z,18.93
2023-02-09T20:05:20.596Z,18.03
2023-02-09T20:07:48.802Z,19.30
2023-02-09T20:10:15.669Z,17.67
2023-02-09T20:12:42.513Z,19.77
2023-02-09T20:15:09.255Z,18.87
2023-02-09T20:17:36.158Z,18.77
2023-02-09T20:20:04.110Z,18.83
2023-02-09T20:22:31.163Z,19.10
2023-02-09T20:24:57.909Z,19.83
2023-02-09T20:27:24.674Z,19.30
2023-02-09T20:29:51.444Z,18.23
2023-02-09T20:32:18.239Z,18.07
2023-02-09T20:34:45.007Z,18.30
2023-02-09T20:37:12.029Z,16.90
2023-02-09T20:39:38.762Z,19.13
2023-02-09T20:42:25.790Z,19.93
2023-02-09T20:45:11.324Z,21.17
2023-02-09T20:47:38.045Z,22.97
2023-02-09T20:50:05.177Z,20.00
2023-02-09T20:52:32.068Z,19.30
2023-02-09T20:54:59.043Z,21.63
2023-02-09T20:57:29.448Z,21.67
2023-02-09T20:59:57.598Z,19.67
2023-02-09T21:02:25.209Z,19.00
2023-02-09T21:04:54.978Z,20.40
2023-02-09T21:07:21.789Z,22.77
2023-02-09T21:09:48.601Z,24.70
2023-02-09T21:12:15.352Z,26.57
2023-02-09T21:14:45.034Z,25.93
2023-02-09T21:17:12.751Z,27.90
2023-02-09T21:19:40.456Z,27.43
2023-02-09T21:22:07.380Z,24.50
2023-02-09T21:24:34.327Z,21.80
2023-02-09T21:27:01.030Z,20.30
2023-02-09T21:29:29.137Z,21.73
2023-02-09T21:31:56.698Z,23.53
2023-02-09T21:34:23.511Z,22.33
2023-02-09T21:36:50.256Z,20.90
2023-02-09T21:39:17.024Z,22.60
2023-02-09T21:42:02.290Z,22.23
2023-02-09T21:44:29.309Z,19.87
2023-02-09T21:46:56.195Z,20.87
2023-02-09T21:49:23.875Z,20.17
2023-02-09T21:51:50.612Z,18.90
2023-02-09T21:54:18.285Z,19.07
2023-02-09T21:56:45.129Z,20.00
2023-02-09T21:59:12.055Z,19.77
2023-02-09T22:01:39.480Z,19.43
2023-02-09T22:04:06.365Z,19.27
2023-02-09T22:06:33.342Z,16.47
2023-02-09T22:09:03.767Z,18.57
2023-02-09T22:11:30.535Z,17.53
2023-02-09T22:13:57.275Z,18.70
2023-02-09T22:16:24.472Z,17.73
2023-02-09T22:18:52.100Z,19.70
2023-02-09T22:21:19.128Z,20.00
2023-02-09T22:23:46.087Z,19.47
2023-02-09T22:26:13.924Z,17.97
2023-02-09T22:28:41.653Z,18.13
2023-02-09T22:31:11.616Z,18.10
2023-02-09T22:33:38.788Z,16.80
2023-02-09T22:36:08.751Z,18.60
2023-02-09T22:38:36.473Z,18.03
2023-02-09T22:41:08.287Z,16.70
2023-02-09T22:43:35.089Z,19.03
2023-02-09T22:46:01.891Z,18.23
2023-02-09T22:48:29.167Z,17.83
2023-02-09T22:50:55.888Z,17.00
2023-02-09T22:53:22.600Z,18.00
2023-02-09T22:55:49.733Z,17.03
2023-02-09T22:58:16.577Z,17.40
2023-02-09T23:00:43.351Z,18.13
2023-02-09T23:03:10.244Z,16.73
2023-02-09T23:05:37.019Z,16.97
2023-02-09T23:08:03.860Z,18.40
2023-02-09T23:10:30.666Z,17.87
2023-02-09T23:12:57.459Z,16.77
2023-02-09T23:15:24.208Z,17.93
2023-02-09T23:17:51.057Z,16.43
2023-02-09T23:20:18.090Z,16.00
2023-02-09T23:22:44.924Z,15.23
2023-02-09T23:25:11.689Z,15.90
2023-02-09T23:27:38.479Z,16.80
2023-02-09T23:30:05.493Z,15.50
2023-02-09T23:32:32.458Z,16.00
2023-02-09T23:37:37.388Z,16.30
2023-02-09T23:40:04.868Z,15.50
2023-02-09T23:42:31.700Z,15.67
2023-02-09T23:44:58.421Z,16.40
2023-02-09T23:47:25.146Z,17.27
2023-02-09T23:49:51.844Z,17.10
2023-02-09T23:52:18.565Z,15.33
2023-02-09T23:54:45.280Z,14.47
2023-02-09T23:57:12.029Z,14.67
2023-02-09T23:59:39.105Z,15.40
